»·PEaware :: DIGGE KSMX-KBFL

DIGGE :: KSMX-KBFL

FLIGHT INFORMATION

Flight Status: Arrived
Operator: Unknown
More flights by this operator :: More flights under this callsign
Pilot: Phil D. (20855)
Aircraft: CESSNA 172 SKYHAWK
(C172)
More flights by this aircraft type
Origin: KSMX Santa Maria Pub/Capt Hancock
United States
Destination: KBFL Meadows
United States
More flights between these airports :: More routes between these airports
Route:
File this flight plan on PilotEdge
Remarks:
Altitude:
(Current/Filed)
7,500ft
Speed:
(Current/Filed)
90kts
Departed: 09-Nov-18 12:37 PM
Arrived: 09-Nov-18 01:56 PM
Distance/Time
Traveled:
76nm/1:19
Distance/Time
To Go:
Arrived

Flight Plot

Page will automatically refresh every two minutes.


Map Options




Map Legend


Flown Route
Filed Route
Departure Airport
Arrival Airport
Navaid (VOR, NDB)
Fix

Horizontal Profiles

Position Reports

Time Latitude Longitude Heading Altitude Ground
Speed
09-Nov-18 12:24 34.895698 -120.444823 42 264ft 0kts
09-Nov-18 12:25 34.895698 -120.444823 42 264ft 0kts
09-Nov-18 12:26 34.895699 -120.444823 42 264ft 0kts
09-Nov-18 12:27 34.895699 -120.444822 42 264ft 0kts
09-Nov-18 12:28 34.895699 -120.444822 42 264ft 0kts
09-Nov-18 12:29 34.895699 -120.444822 42 264ft 0kts
09-Nov-18 12:30 34.895699 -120.444822 42 264ft 0kts
09-Nov-18 12:31 34.895700 -120.444821 42 264ft 0kts
09-Nov-18 12:32 34.895700 -120.444821 42 264ft 0kts
09-Nov-18 12:33 34.895700 -120.444821 42 264ft 0kts
09-Nov-18 12:34 34.895700 -120.444821 42 264ft 0kts
09-Nov-18 12:35 34.895701 -120.444820 42 264ft 0kts
09-Nov-18 12:36 34.895701 -120.444820 42 264ft 0kts
09-Nov-18 12:37 34.895668 -120.444857 42 264ft 1kts
09-Nov-18 12:38 34.893457 -120.445702 176 264ft 0kts
09-Nov-18 12:39 34.893457 -120.445702 176 264ft 0kts
09-Nov-18 12:40 34.899256 -120.453637 316 410ft 71kts
09-Nov-18 12:41 34.914122 -120.470210 352 1038ft 72kts
09-Nov-18 12:42 34.917463 -120.448688 100 1576ft 76kts
09-Nov-18 12:43 34.914781 -120.423109 93 2098ft 76kts
09-Nov-18 12:44 34.914425 -120.397413 86 2592ft 75kts
09-Nov-18 12:45 34.916493 -120.371984 80 3057ft 75kts
09-Nov-18 12:46 34.921058 -120.347089 72 3496ft 75kts
09-Nov-18 12:47 34.928056 -120.323313 63 3909ft 74kts
09-Nov-18 12:48 34.937424 -120.301019 54 4296ft 73kts
09-Nov-18 12:49 34.949058 -120.280644 44 4658ft 73kts
09-Nov-18 12:50 34.962795 -120.262580 34 4991ft 72kts
09-Nov-18 12:51 34.975870 -120.244668 99 5253ft 87kts
09-Nov-18 12:52 34.956448 -120.226037 139 5446ft 91kts
09-Nov-18 12:53 34.942852 -120.201126 124 5608ft 94kts
09-Nov-18 12:54 34.926212 -120.178054 133 6019ft 90kts
09-Nov-18 12:55 34.914928 -120.150108 135 6409ft 89kts
09-Nov-18 12:56 34.908196 -120.120734 88 6789ft 95kts
09-Nov-18 12:57 34.912841 -120.089423 89 7139ft 96kts
09-Nov-18 12:58 34.909086 -120.057429 97 7479ft 95kts
09-Nov-18 12:59 34.905813 -120.025472 96 7769ft 99kts
09-Nov-18 13:00 34.902427 -119.987630 98 7732ft 114kts
09-Nov-18 13:01 34.909231 -119.951540 62 7706ft 117kts
09-Nov-18 13:02 34.903948 -119.912968 114 7595ft 122kts
09-Nov-18 13:03 34.894518 -119.873472 108 7532ft 121kts
09-Nov-18 13:04 34.889025 -119.832941 92 7471ft 122kts
09-Nov-18 13:05 34.888810 -119.791667 91 7416ft 122kts
09-Nov-18 13:06 34.887268 -119.751008 91 7441ft 116kts
09-Nov-18 13:07 34.886988 -119.712025 89 7504ft 116kts
09-Nov-18 13:08 34.887608 -119.672146 87 7500ft 118kts
09-Nov-18 13:09 34.888720 -119.638797 86 7500ft 118kts
09-Nov-18 13:10 34.892746 -119.592626 42 7473ft 114kts
09-Nov-18 13:11 34.920485 -119.576070 18 7321ft 112kts
09-Nov-18 13:12 34.943451 -119.563089 10 7306ft 106kts
09-Nov-18 13:13 34.934497 -119.536747 161 7464ft 104kts
09-Nov-18 13:14 34.913814 -119.520872 154 7487ft 107kts
09-Nov-18 13:15 34.888749 -119.490571 113 7506ft 116kts
09-Nov-18 13:16 34.883684 -119.458335 102 7530ft 117kts
09-Nov-18 13:17 34.876932 -119.419803 98 7549ft 117kts
09-Nov-18 13:18 34.872828 -119.379477 97 7498ft 119kts
09-Nov-18 13:19 34.869439 -119.339291 96 7499ft 118kts
09-Nov-18 13:20 34.867520 -119.301728 87 7750ft 101kts
09-Nov-18 13:21 34.880744 -119.274378 77 7965ft 100kts
09-Nov-18 13:22 34.881237 -119.240987 76 8251ft 98kts
09-Nov-18 13:23 34.881910 -119.208837 86 8552ft 93kts
09-Nov-18 13:24 34.878668 -119.176995 97 8797ft 94kts
09-Nov-18 13:25 34.875364 -119.145098 97 9035ft 94kts
09-Nov-18 13:26 34.872068 -119.113303 97 9257ft 94kts
09-Nov-18 13:27 34.875503 -119.083413 36 9442ft 91kts
09-Nov-18 13:28 34.896580 -119.069139 331 9513ft 77kts
09-Nov-18 13:29 34.917364 -119.062163 27 9600ft 94kts
09-Nov-18 13:30 34.937522 -119.042074 26 9741ft 93kts
09-Nov-18 13:31 34.959522 -119.018805 39 9397ft 126kts
09-Nov-18 13:32 34.980112 -118.986000 44 9110ft 122kts
09-Nov-18 13:33 34.979848 -118.961413 242 8797ft 81kts
09-Nov-18 13:34 35.001176 -118.959104 32 8541ft 116kts
09-Nov-18 13:35 35.027253 -118.945829 358 8530ft 98kts
09-Nov-18 13:36 35.052685 -118.945779 331 8537ft 85kts
09-Nov-18 13:37 35.076701 -118.949714 346 8524ft 91kts
09-Nov-18 13:38 35.100645 -118.954450 331 8537ft 85kts
09-Nov-18 13:39 35.123228 -118.962470 336 8554ft 86kts
09-Nov-18 13:40 35.148002 -118.964164 344 8566ft 89kts
09-Nov-18 13:41 35.169397 -118.971735 324 8756ft 69kts
09-Nov-18 13:42 35.185513 -118.981902 354 8953ft 81kts
09-Nov-18 13:43 35.207567 -118.980268 347 9178ft 80kts
09-Nov-18 13:44 35.228369 -118.983418 318 9364ft 68kts
09-Nov-18 13:45 35.248868 -118.987154 340 9507ft 78kts
09-Nov-18 13:46 35.270339 -118.989758 341 9633ft 76kts
09-Nov-18 13:47 35.291558 -118.988454 350 9160ft 73kts
09-Nov-18 13:48 35.310875 -118.990822 319 8543ft 68kts
09-Nov-18 13:49 35.327660 -119.001970 311 7693ft 67kts
09-Nov-18 13:50 35.340839 -119.017652 297 6836ft 64kts
09-Nov-18 13:51 35.348298 -119.037943 282 5918ft 69kts
09-Nov-18 13:52 35.345065 -119.062289 314 4938ft 80kts
09-Nov-18 13:53 35.352441 -119.036761 69 3895ft 82kts
09-Nov-18 13:54 35.366414 -119.016223 37 3130ft 75kts
09-Nov-18 13:55 35.383803 -119.003477 15 2418ft 71kts
09-Nov-18 13:56 35.399613 -119.014615 316 1620ft 65kts
09-Nov-18 13:57 35.412957 -119.030989 317 1177ft 69kts
09-Nov-18 13:58 35.426317 -119.047098 315 701ft 67kts
09-Nov-18 13:59 35.436078 -119.058029 40 510ft 12kts
09-Nov-18 14:00 35.436291 -119.057745 52 510ft 0kts
09-Nov-18 14:01 35.436291 -119.057745 52 510ft 0kts
09-Nov-18 14:02 35.436291 -119.057745 52 510ft 0kts
09-Nov-18 14:03 35.436291 -119.057744 52 510ft 0kts
09-Nov-18 14:04 35.436291 -119.057744 52 510ft 0kts
09-Nov-18 14:05 35.436292 -119.057744 52 510ft 0kts
09-Nov-18 14:06 35.436292 -119.057744 52 510ft 0kts
09-Nov-18 14:07 35.434477 -119.054225 48 510ft 11kts
09-Nov-18 14:08 35.435498 -119.050485 71 510ft 10kts
09-Nov-18 14:09 35.436237 -119.049536 46 510ft 0kts
09-Nov-18 14:10 35.436237 -119.049536 46 510ft 0kts
09-Nov-18 14:11 35.436237 -119.049536 46 510ft 0kts
09-Nov-18 14:12 35.436237 -119.049536 46 510ft 0kts
09-Nov-18 14:13 35.436237 -119.049535 46 510ft 0kts

Navigation Log

Ident Type
1. KSMX Airport
2. KBFL Airport